createdAt,value
2022-10-02T00:06:22.728Z,22.5
2022-10-02T00:21:57.313Z,22.5
2022-10-02T00:37:32.013Z,22.5
2022-10-02T00:53:06.666Z,22.5
2022-10-02T01:08:41.500Z,22.6
2022-10-02T01:24:16.230Z,22.6
2022-10-02T01:39:51.017Z,22.6
2022-10-02T01:55:25.640Z,22.5
2022-10-02T02:11:00.207Z,22.5
2022-10-02T02:26:36.127Z,22.3
2022-10-02T02:42:12.787Z,22.2
2022-10-02T02:57:48.328Z,22.2
2022-10-02T03:13:22.989Z,22.1
2022-10-02T03:29:21.770Z,22
2022-10-02T03:44:56.761Z,22
2022-10-02T04:00:31.527Z,21.9
2022-10-02T04:16:06.305Z,21.9
2022-10-02T04:31:41.529Z,21.9
2022-10-02T04:47:16.161Z,21.9
2022-10-02T05:02:50.770Z,22
2022-10-02T05:18:25.341Z,22
2022-10-02T05:34:00.123Z,21.9
2022-10-02T05:49:34.902Z,21.9
2022-10-02T06:05:09.598Z,21.9
2022-10-02T06:20:44.216Z,21.9
2022-10-02T06:36:18.877Z,21.9
2022-10-02T06:51:53.466Z,21.9
2022-10-02T07:07:28.057Z,21.9
2022-10-02T07:23:17.620Z,21.9
2022-10-02T07:38:52.286Z,21.5
2022-10-02T07:54:26.837Z,21
2022-10-02T08:10:01.366Z,20.6
2022-10-02T08:25:35.890Z,20.5
2022-10-02T08:41:10.423Z,20.3
2022-10-02T08:56:47.811Z,20.3
2022-10-02T09:12:22.385Z,20.5
2022-10-02T09:27:57.206Z,20.8
2022-10-02T09:43:31.815Z,21
2022-10-02T09:59:06.378Z,21.3
2022-10-02T10:14:40.997Z,21.6
2022-10-02T10:30:15.669Z,21.9
2022-10-02T10:46:34.412Z,22.1
2022-10-02T11:02:09.561Z,22.5
2022-10-02T11:17:44.156Z,22.6
2022-10-02T11:33:18.991Z,22.7
2022-10-02T11:48:53.577Z,22.6
2022-10-02T12:04:28.187Z,22.7
2022-10-02T12:20:02.784Z,22.8
2022-10-02T12:35:37.117Z,22.9
2022-10-02T12:51:11.697Z,23
2022-10-02T13:06:46.329Z,23
2022-10-02T13:22:20.912Z,23
2022-10-02T13:37:55.642Z,22.9
2022-10-02T13:53:30.264Z,22.9
2022-10-02T14:09:04.875Z,22.9
2022-10-02T14:24:39.457Z,22.8
2022-10-02T14:40:14.377Z,22.8
2022-10-02T14:55:48.990Z,22.6
